sensor_id;sensor_type;location;lat;lon;timestamp;P1;durP1;ratioP1;P2;durP2;ratioP2
18102;SDS011;9178;51.120;6.192;2023-02-24T00:01:54;12.80;;;3.13;;
18102;SDS011;9178;51.120;6.192;2023-02-24T00:04:26;9.63;;;3.30;;
18102;SDS011;9178;51.120;6.192;2023-02-24T00:06:55;16.70;;;3.07;;
18102;SDS011;9178;51.120;6.192;2023-02-24T00:09:22;11.90;;;3.20;;
18102;SDS011;9178;51.120;6.192;2023-02-24T00:11:52;11.03;;;3.00;;
18102;SDS011;9178;51.120;6.192;2023-02-24T00:14:20;15.33;;;2.77;;
18102;SDS011;9178;51.120;6.192;2023-02-24T00:16:48;12.53;;;2.83;;
18102;SDS011;9178;51.120;6.192;2023-02-24T00:19:17;14.27;;;3.27;;
18102;SDS011;9178;51.120;6.192;2023-02-24T00:21:46;12.73;;;2.80;;
18102;SDS011;9178;51.120;6.192;2023-02-24T00:24:13;20.80;;;3.33;;
18102;SDS011;9178;51.120;6.192;2023-02-24T00:26:40;11.97;;;2.67;;
18102;SDS011;9178;51.120;6.192;2023-02-24T00:29:08;12.10;;;2.33;;
18102;SDS011;9178;51.120;6.192;2023-02-24T00:31:36;10.37;;;2.73;;
18102;SDS011;9178;51.120;6.192;2023-02-24T00:34:06;13.07;;;3.33;;
18102;SDS011;9178;51.120;6.192;2023-02-24T00:36:33;13.37;;;3.13;;
18102;SDS011;9178;51.120;6.192;2023-02-24T00:39:04;13.80;;;3.10;;
18102;SDS011;9178;51.120;6.192;2023-02-24T00:41:34;14.40;;;2.67;;
18102;SDS011;9178;51.120;6.192;2023-02-24T00:44:02;13.53;;;3.10;;
18102;SDS011;9178;51.120;6.192;2023-02-24T00:46:33;16.37;;;2.97;;
18102;SDS011;9178;51.120;6.192;2023-02-24T00:49:01;14.87;;;3.03;;
18102;SDS011;9178;51.120;6.192;2023-02-24T00:51:29;17.73;;;3.57;;
18102;SDS011;9178;51.120;6.192;2023-02-24T00:53:59;15.40;;;2.77;;
18102;SDS011;9178;51.120;6.192;2023-02-24T00:56:28;11.93;;;3.07;;
18102;SDS011;9178;51.120;6.192;2023-02-24T00:58:56;15.47;;;2.80;;
18102;SDS011;9178;51.120;6.192;2023-02-24T01:01:24;11.53;;;2.33;;
18102;SDS011;9178;51.120;6.192;2023-02-24T01:03:54;12.70;;;2.53;;
18102;SDS011;9178;51.120;6.192;2023-02-24T01:06:21;17.33;;;3.10;;
18102;SDS011;9178;51.120;6.192;2023-02-24T01:08:51;15.80;;;2.80;;
18102;SDS011;9178;51.120;6.192;2023-02-24T01:11:19;12.27;;;2.70;;
18102;SDS011;9178;51.120;6.192;2023-02-24T01:14:07;12.77;;;2.63;;
18102;SDS011;9178;51.120;6.192;2023-02-24T01:16:36;12.33;;;2.43;;
18102;SDS011;9178;51.120;6.192;2023-02-24T01:19:03;11.17;;;2.30;;
18102;SDS011;9178;51.120;6.192;2023-02-24T01:21:30;11.70;;;2.80;;
18102;SDS011;9178;51.120;6.192;2023-02-24T01:23:57;11.37;;;2.67;;
18102;SDS011;9178;51.120;6.192;2023-02-24T01:26:24;12.63;;;2.47;;
18102;SDS011;9178;51.120;6.192;2023-02-24T01:28:52;8.83;;;2.07;;
18102;SDS011;9178;51.120;6.192;2023-02-24T01:31:21;17.70;;;3.10;;
18102;SDS011;9178;51.120;6.192;2023-02-24T01:33:48;13.47;;;2.47;;
18102;SDS011;9178;51.120;6.192;2023-02-24T01:36:16;15.03;;;2.70;;
18102;SDS011;9178;51.120;6.192;2023-02-24T01:38:45;16.00;;;2.70;;
18102;SDS011;9178;51.120;6.192;2023-02-24T01:41:14;13.30;;;2.87;;
18102;SDS011;9178;51.120;6.192;2023-02-24T01:43:55;15.47;;;3.20;;
18102;SDS011;9178;51.120;6.192;2023-02-24T01:46:29;13.40;;;3.30;;
18102;SDS011;9178;51.120;6.192;2023-02-24T01:48:58;19.60;;;3.40;;
18102;SDS011;9178;51.120;6.192;2023-02-24T01:51:29;12.63;;;3.60;;
18102;SDS011;9178;51.120;6.192;2023-02-24T01:53:59;15.60;;;3.63;;
18102;SDS011;9178;51.120;6.192;2023-02-24T01:56:27;19.93;;;3.40;;
18102;SDS011;9178;51.120;6.192;2023-02-24T01:58:57;15.77;;;3.50;;
18102;SDS011;9178;51.120;6.192;2023-02-24T02:01:26;21.60;;;4.33;;
18102;SDS011;9178;51.120;6.192;2023-02-24T02:03:56;25.00;;;3.63;;
18102;SDS011;9178;51.120;6.192;2023-02-24T02:06:30;12.63;;;2.53;;
18102;SDS011;9178;51.120;6.192;2023-02-24T02:08:57;14.37;;;3.30;;
18102;SDS011;9178;51.120;6.192;2023-02-24T02:11:25;15.63;;;2.70;;
18102;SDS011;9178;51.120;6.192;2023-02-24T02:13:52;15.90;;;3.40;;
18102;SDS011;9178;51.120;6.192;2023-02-24T02:19:35;14.17;;;3.03;;
18102;SDS011;9178;51.120;6.192;2023-02-24T02:22:34;14.03;;;3.50;;
18102;SDS011;9178;51.120;6.192;2023-02-24T02:25:15;18.57;;;3.13;;
18102;SDS011;9178;51.120;6.192;2023-02-24T02:31:08;18.03;;;3.37;;
18102;SDS011;9178;51.120;6.192;2023-02-24T02:37:01;15.10;;;3.30;;
18102;SDS011;9178;51.120;6.192;2023-02-24T02:39:34;13.23;;;3.53;;
18102;SDS011;9178;51.120;6.192;2023-02-24T02:42:17;13.17;;;2.90;;
18102;SDS011;9178;51.120;6.192;2023-02-24T02:44:52;16.63;;;2.97;;
18102;SDS011;9178;51.120;6.192;2023-02-24T02:47:28;13.87;;;2.80;;
18102;SDS011;9178;51.120;6.192;2023-02-24T02:50:04;14.17;;;2.70;;
18102;SDS011;9178;51.120;6.192;2023-02-24T02:52:38;18.63;;;3.63;;
18102;SDS011;9178;51.120;6.192;2023-02-24T02:55:08;14.23;;;3.30;;
18102;SDS011;9178;51.120;6.192;2023-02-24T02:57:40;13.70;;;2.90;;
18102;SDS011;9178;51.120;6.192;2023-02-24T03:00:12;13.80;;;2.70;;
18102;SDS011;9178;51.120;6.192;2023-02-24T03:02:47;13.57;;;2.50;;
18102;SDS011;9178;51.120;6.192;2023-02-24T03:05:17;17.23;;;3.47;;
18102;SDS011;9178;51.120;6.192;2023-02-24T03:07:48;14.27;;;2.90;;
18102;SDS011;9178;51.120;6.192;2023-02-24T03:10:18;15.97;;;2.73;;
18102;SDS011;9178;51.120;6.192;2023-02-24T03:12:49;10.93;;;2.80;;
18102;SDS011;9178;51.120;6.192;2023-02-24T03:15:19;15.57;;;3.43;;
18102;SDS011;9178;51.120;6.192;2023-02-24T03:17:50;17.40;;;2.90;;
18102;SDS011;9178;51.120;6.192;2023-02-24T03:20:26;17.40;;;2.97;;
18102;SDS011;9178;51.120;6.192;2023-02-24T03:23:00;16.00;;;3.30;;
18102;SDS011;9178;51.120;6.192;2023-02-24T03:25:32;13.63;;;2.77;;
18102;SDS011;9178;51.120;6.192;2023-02-24T03:28:10;12.67;;;2.90;;
18102;SDS011;9178;51.120;6.192;2023-02-24T03:30:43;10.73;;;2.77;;
18102;SDS011;9178;51.120;6.192;2023-02-24T03:33:15;17.27;;;3.97;;
18102;SDS011;9178;51.120;6.192;2023-02-24T03:35:49;14.13;;;3.00;;
18102;SDS011;9178;51.120;6.192;2023-02-24T03:38:18;16.13;;;3.27;;
18102;SDS011;9178;51.120;6.192;2023-02-24T03:40:48;13.00;;;2.80;;
18102;SDS011;9178;51.120;6.192;2023-02-24T03:43:17;15.37;;;4.40;;
18102;SDS011;9178;51.120;6.192;2023-02-24T03:45:50;15.63;;;3.20;;
18102;SDS011;9178;51.120;6.192;2023-02-24T03:48:18;13.47;;;3.20;;
18102;SDS011;9178;51.120;6.192;2023-02-24T03:50:45;12.83;;;2.80;;
18102;SDS011;9178;51.120;6.192;2023-02-24T03:53:23;13.23;;;3.17;;
18102;SDS011;9178;51.120;6.192;2023-02-24T03:55:58;13.30;;;3.00;;
18102;SDS011;9178;51.120;6.192;2023-02-24T03:58:37;16.37;;;3.23;;
18102;SDS011;9178;51.120;6.192;2023-02-24T04:01:16;12.90;;;2.87;;
18102;SDS011;9178;51.120;6.192;2023-02-24T04:03:52;13.97;;;2.73;;
18102;SDS011;9178;51.120;6.192;2023-02-24T04:06:28;19.00;;;3.33;;
18102;SDS011;9178;51.120;6.192;2023-02-24T04:09:05;12.77;;;3.43;;
18102;SDS011;9178;51.120;6.192;2023-02-24T04:11:40;15.33;;;3.13;;
18102;SDS011;9178;51.120;6.192;2023-02-24T04:14:11;11.83;;;3.00;;
18102;SDS011;9178;51.120;6.192;2023-02-24T04:16:50;19.57;;;3.50;;
18102;SDS011;9178;51.120;6.192;2023-02-24T04:19:24;13.03;;;3.20;;
18102;SDS011;9178;51.120;6.192;2023-02-24T04:21:54;19.30;;;3.63;;
18102;SDS011;9178;51.120;6.192;2023-02-24T04:24:24;14.37;;;4.20;;
18102;SDS011;9178;51.120;6.192;2023-02-24T04:26:59;16.77;;;3.30;;
18102;SDS011;9178;51.120;6.192;2023-02-24T04:29:27;12.57;;;3.40;;
18102;SDS011;9178;51.120;6.192;2023-02-24T04:32:00;15.03;;;3.50;;
18102;SDS011;9178;51.120;6.192;2023-02-24T04:34:32;17.97;;;3.30;;
18102;SDS011;9178;51.120;6.192;2023-02-24T04:37:00;12.77;;;3.00;;
18102;SDS011;9178;51.120;6.192;2023-02-24T04:39:29;19.27;;;3.83;;
18102;SDS011;9178;51.120;6.192;2023-02-24T04:41:56;11.93;;;2.83;;
18102;SDS011;9178;51.120;6.192;2023-02-24T04:44:25;12.73;;;3.10;;
18102;SDS011;9178;51.120;6.192;2023-02-24T04:46:53;16.50;;;3.27;;
18102;SDS011;9178;51.120;6.192;2023-02-24T04:49:20;14.30;;;3.13;;
18102;SDS011;9178;51.120;6.192;2023-02-24T04:51:47;11.90;;;3.33;;
18102;SDS011;9178;51.120;6.192;2023-02-24T04:54:16;12.33;;;3.47;;
18102;SDS011;9178;51.120;6.192;2023-02-24T04:56:46;17.87;;;3.43;;
18102;SDS011;9178;51.120;6.192;2023-02-24T04:59:14;12.97;;;3.63;;
18102;SDS011;9178;51.120;6.192;2023-02-24T05:01:43;14.30;;;3.47;;
18102;SDS011;9178;51.120;6.192;2023-02-24T05:04:10;13.70;;;3.70;;
18102;SDS011;9178;51.120;6.192;2023-02-24T05:06:39;20.10;;;3.97;;
18102;SDS011;9178;51.120;6.192;2023-02-24T05:09:08;18.47;;;4.13;;
18102;SDS011;9178;51.120;6.192;2023-02-24T05:11:38;16.27;;;4.20;;
18102;SDS011;9178;51.120;6.192;2023-02-24T05:14:08;13.83;;;3.80;;
18102;SDS011;9178;51.120;6.192;2023-02-24T05:16:38;17.23;;;4.10;;
18102;SDS011;9178;51.120;6.192;2023-02-24T05:19:06;14.80;;;3.77;;
18102;SDS011;9178;51.120;6.192;2023-02-24T05:21:50;16.50;;;3.53;;
18102;SDS011;9178;51.120;6.192;2023-02-24T05:24:17;14.13;;;3.77;;
18102;SDS011;9178;51.120;6.192;2023-02-24T05:26:44;16.10;;;4.03;;
18102;SDS011;9178;51.120;6.192;2023-02-24T05:29:13;16.43;;;3.77;;
18102;SDS011;9178;51.120;6.192;2023-02-24T05:31:39;14.53;;;3.50;;
18102;SDS011;9178;51.120;6.192;2023-02-24T05:34:06;17.33;;;3.90;;
18102;SDS011;9178;51.120;6.192;2023-02-24T05:36:35;19.40;;;3.70;;
18102;SDS011;9178;51.120;6.192;2023-02-24T05:39:04;16.97;;;3.73;;
18102;SDS011;9178;51.120;6.192;2023-02-24T05:41:32;14.63;;;3.43;;
18102;SDS011;9178;51.120;6.192;2023-02-24T05:44:03;20.23;;;4.23;;
18102;SDS011;9178;51.120;6.192;2023-02-24T05:46:34;14.50;;;3.67;;
18102;SDS011;9178;51.120;6.192;2023-02-24T05:49:03;20.60;;;3.73;;
18102;SDS011;9178;51.120;6.192;2023-02-24T05:51:33;12.77;;;3.17;;
18102;SDS011;9178;51.120;6.192;2023-02-24T05:54:03;16.63;;;3.80;;
18102;SDS011;9178;51.120;6.192;2023-02-24T05:56:30;14.17;;;3.80;;
18102;SDS011;9178;51.120;6.192;2023-02-24T05:58:58;16.83;;;3.80;;
18102;SDS011;9178;51.120;6.192;2023-02-24T06:01:29;15.40;;;3.47;;
18102;SDS011;9178;51.120;6.192;2023-02-24T06:03:59;15.37;;;3.73;;
18102;SDS011;9178;51.120;6.192;2023-02-24T06:06:30;17.13;;;3.73;;
18102;SDS011;9178;51.120;6.192;2023-02-24T06:08:59;15.80;;;3.33;;
18102;SDS011;9178;51.120;6.192;2023-02-24T06:11:31;11.70;;;3.80;;
18102;SDS011;9178;51.120;6.192;2023-02-24T06:13:58;9.50;;;3.33;;
18102;SDS011;9178;51.120;6.192;2023-02-24T06:16:25;13.93;;;3.47;;
18102;SDS011;9178;51.120;6.192;2023-02-24T06:18:53;15.70;;;3.77;;
18102;SDS011;9178;51.120;6.192;2023-02-24T06:21:24;15.03;;;3.10;;
18102;SDS011;9178;51.120;6.192;2023-02-24T06:23:53;20.13;;;3.17;;
18102;SDS011;9178;51.120;6.192;2023-02-24T06:26:20;16.70;;;4.67;;
18102;SDS011;9178;51.120;6.192;2023-02-24T06:28:47;14.37;;;3.63;;
18102;SDS011;9178;51.120;6.192;2023-02-24T06:31:18;15.77;;;3.50;;
18102;SDS011;9178;51.120;6.192;2023-02-24T06:33:45;12.37;;;3.43;;
18102;SDS011;9178;51.120;6.192;2023-02-24T06:36:13;14.40;;;3.17;;
18102;SDS011;9178;51.120;6.192;2023-02-24T06:38:41;15.50;;;3.97;;
18102;SDS011;9178;51.120;6.192;2023-02-24T06:41:08;13.00;;;3.90;;
18102;SDS011;9178;51.120;6.192;2023-02-24T06:43:36;17.60;;;3.87;;
18102;SDS011;9178;51.120;6.192;2023-02-24T06:46:04;17.67;;;3.17;;
18102;SDS011;9178;51.120;6.192;2023-02-24T06:48:31;15.90;;;3.77;;
18102;SDS011;9178;51.120;6.192;2023-02-24T06:51:02;18.33;;;3.63;;
18102;SDS011;9178;51.120;6.192;2023-02-24T06:53:30;17.50;;;4.03;;
18102;SDS011;9178;51.120;6.192;2023-02-24T06:56:02;14.27;;;3.40;;
18102;SDS011;9178;51.120;6.192;2023-02-24T06:58:31;10.33;;;3.40;;
18102;SDS011;9178;51.120;6.192;2023-02-24T07:00:58;12.40;;;3.37;;
18102;SDS011;9178;51.120;6.192;2023-02-24T07:03:26;14.93;;;3.33;;
18102;SDS011;9178;51.120;6.192;2023-02-24T07:06:04;13.40;;;3.40;;
18102;SDS011;9178;51.120;6.192;2023-02-24T07:08:45;16.97;;;3.90;;
18102;SDS011;9178;51.120;6.192;2023-02-24T07:11:13;11.97;;;3.30;;
18102;SDS011;9178;51.120;6.192;2023-02-24T07:13:43;16.10;;;3.37;;
18102;SDS011;9178;51.120;6.192;2023-02-24T07:16:11;18.93;;;3.00;;
18102;SDS011;9178;51.120;6.192;2023-02-24T07:18:40;16.80;;;3.30;;
18102;SDS011;9178;51.120;6.192;2023-02-24T07:21:08;12.47;;;3.43;;
18102;SDS011;9178;51.120;6.192;2023-02-24T07:23:36;15.07;;;3.13;;
18102;SDS011;9178;51.120;6.192;2023-02-24T07:26:08;16.27;;;5.20;;
18102;SDS011;9178;51.120;6.192;2023-02-24T07:28:39;10.40;;;2.80;;
18102;SDS011;9178;51.120;6.192;2023-02-24T07:31:07;17.60;;;3.10;;
18102;SDS011;9178;51.120;6.192;2023-02-24T07:33:36;15.90;;;3.10;;
18102;SDS011;9178;51.120;6.192;2023-02-24T07:36:03;13.73;;;3.87;;
18102;SDS011;9178;51.120;6.192;2023-02-24T07:38:34;14.47;;;3.37;;
18102;SDS011;9178;51.120;6.192;2023-02-24T07:41:03;6.67;;;2.73;;
18102;SDS011;9178;51.120;6.192;2023-02-24T07:43:31;14.80;;;2.83;;
18102;SDS011;9178;51.120;6.192;2023-02-24T07:46:05;8.27;;;2.60;;
18102;SDS011;9178;51.120;6.192;2023-02-24T07:48:33;9.57;;;2.93;;
18102;SDS011;9178;51.120;6.192;2023-02-24T07:51:00;12.37;;;3.07;;
18102;SDS011;9178;51.120;6.192;2023-02-24T07:53:27;10.87;;;3.00;;
18102;SDS011;9178;51.120;6.192;2023-02-24T07:55:54;13.53;;;3.03;;
18102;SDS011;9178;51.120;6.192;2023-02-24T07:58:20;14.13;;;3.17;;
18102;SDS011;9178;51.120;6.192;2023-02-24T08:00:48;9.77;;;2.57;;
18102;SDS011;9178;51.120;6.192;2023-02-24T08:03:25;8.43;;;2.73;;
18102;SDS011;9178;51.120;6.192;2023-02-24T08:05:54;9.97;;;2.60;;
18102;SDS011;9178;51.120;6.192;2023-02-24T08:08:36;14.77;;;2.83;;
18102;SDS011;9178;51.120;6.192;2023-02-24T08:11:21;12.23;;;3.70;;
18102;SDS011;9178;51.120;6.192;2023-02-24T08:13:50;11.63;;;2.67;;
18102;SDS011;9178;51.120;6.192;2023-02-24T08:16:17;11.27;;;2.70;;
18102;SDS011;9178;51.120;6.192;2023-02-24T08:18:45;8.70;;;2.50;;
18102;SDS011;9178;51.120;6.192;2023-02-24T08:21:14;14.10;;;3.13;;
18102;SDS011;9178;51.120;6.192;2023-02-24T08:23:44;9.60;;;3.33;;
18102;SDS011;9178;51.120;6.192;2023-02-24T08:26:12;10.73;;;2.67;;
18102;SDS011;9178;51.120;6.192;2023-02-24T08:28:39;11.47;;;3.40;;
18102;SDS011;9178;51.120;6.192;2023-02-24T08:31:05;13.67;;;2.77;;
18102;SDS011;9178;51.120;6.192;2023-02-24T08:33:32;10.47;;;2.97;;
18102;SDS011;9178;51.120;6.192;2023-02-24T08:36:02;8.47;;;2.77;;
18102;SDS011;9178;51.120;6.192;2023-02-24T08:38:30;11.50;;;3.43;;
18102;SDS011;9178;51.120;6.192;2023-02-24T08:41:09;7.83;;;3.37;;
18102;SDS011;9178;51.120;6.192;2023-02-24T08:43:41;6.77;;;2.70;;
18102;SDS011;9178;51.120;6.192;2023-02-24T08:46:13;12.17;;;3.10;;
18102;SDS011;9178;51.120;6.192;2023-02-24T08:48:43;8.00;;;3.23;;
18102;SDS011;9178;51.120;6.192;2023-02-24T08:51:13;13.00;;;3.40;;
18102;SDS011;9178;51.120;6.192;2023-02-24T08:53:46;11.37;;;2.93;;
18102;SDS011;9178;51.120;6.192;2023-02-24T08:56:17;9.03;;;2.97;;
18102;SDS011;9178;51.120;6.192;2023-02-24T08:58:49;11.10;;;3.20;;
18102;SDS011;9178;51.120;6.192;2023-02-24T09:01:22;9.13;;;3.33;;
18102;SDS011;9178;51.120;6.192;2023-02-24T09:03:52;13.67;;;3.97;;
18102;SDS011;9178;51.120;6.192;2023-02-24T09:06:25;7.10;;;3.57;;
18102;SDS011;9178;51.120;6.192;2023-02-24T09:08:59;8.20;;;4.00;;
18102;SDS011;9178;51.120;6.192;2023-02-24T09:11:47;11.50;;;3.50;;
18102;SDS011;9178;51.120;6.192;2023-02-24T09:14:20;14.13;;;3.83;;
18102;SDS011;9178;51.120;6.192;2023-02-24T09:16:48;13.37;;;4.20;;
18102;SDS011;9178;51.120;6.192;2023-02-24T09:19:37;9.43;;;3.50;;
18102;SDS011;9178;51.120;6.192;2023-02-24T09:22:28;9.97;;;3.67;;
18102;SDS011;9178;51.120;6.192;2023-02-24T09:24:56;12.07;;;3.23;;
18102;SDS011;9178;51.120;6.192;2023-02-24T09:27:37;13.20;;;4.90;;
18102;SDS011;9178;51.120;6.192;2023-02-24T09:30:06;12.13;;;4.30;;
18102;SDS011;9178;51.120;6.192;2023-02-24T09:32:49;9.80;;;3.90;;
18102;SDS011;9178;51.120;6.192;2023-02-24T09:35:25;16.07;;;3.87;;
18102;SDS011;9178;51.120;6.192;2023-02-24T09:37:56;10.70;;;3.90;;
18102;SDS011;9178;51.120;6.192;2023-02-24T09:40:24;13.40;;;4.10;;
18102;SDS011;9178;51.120;6.192;2023-02-24T09:43:04;14.93;;;4.40;;
18102;SDS011;9178;51.120;6.192;2023-02-24T09:45:35;17.83;;;4.23;;
18102;SDS011;9178;51.120;6.192;2023-02-24T09:48:08;17.27;;;4.33;;
18102;SDS011;9178;51.120;6.192;2023-02-24T09:50:45;8.80;;;3.50;;
18102;SDS011;9178;51.120;6.192;2023-02-24T09:53:27;13.73;;;3.90;;
18102;SDS011;9178;51.120;6.192;2023-02-24T09:56:04;9.87;;;3.50;;
18102;SDS011;9178;51.120;6.192;2023-02-24T09:58:36;12.57;;;3.80;;
18102;SDS011;9178;51.120;6.192;2023-02-24T10:01:16;17.97;;;3.63;;
18102;SDS011;9178;51.120;6.192;2023-02-24T10:03:55;9.13;;;3.10;;
18102;SDS011;9178;51.120;6.192;2023-02-24T10:06:30;12.20;;;3.07;;
18102;SDS011;9178;51.120;6.192;2023-02-24T10:09:03;13.00;;;2.90;;
18102;SDS011;9178;51.120;6.192;2023-02-24T10:11:39;20.97;;;4.17;;
18102;SDS011;9178;51.120;6.192;2023-02-24T10:14:19;8.50;;;3.03;;
18102;SDS011;9178;51.120;6.192;2023-02-24T10:16:53;10.17;;;3.13;;
18102;SDS011;9178;51.120;6.192;2023-02-24T10:19:34;10.97;;;3.27;;
18102;SDS011;9178;51.120;6.192;2023-02-24T10:22:06;10.17;;;2.70;;
18102;SDS011;9178;51.120;6.192;2023-02-24T10:24:52;10.40;;;3.00;;
18102;SDS011;9178;51.120;6.192;2023-02-24T10:27:38;8.73;;;2.90;;
18102;SDS011;9178;51.120;6.192;2023-02-24T10:30:19;8.77;;;2.30;;
18102;SDS011;9178;51.120;6.192;2023-02-24T10:33:05;8.90;;;2.73;;
18102;SDS011;9178;51.120;6.192;2023-02-24T10:35:49;9.03;;;2.53;;
18102;SDS011;9178;51.120;6.192;2023-02-24T10:38:18;9.37;;;2.77;;
18102;SDS011;9178;51.120;6.192;2023-02-24T10:40:48;10.73;;;2.87;;
18102;SDS011;9178;51.120;6.192;2023-02-24T10:43:21;9.00;;;2.63;;
18102;SDS011;9178;51.120;6.192;2023-02-24T10:45:54;9.30;;;2.80;;
18102;SDS011;9178;51.120;6.192;2023-02-24T10:48:30;7.90;;;2.50;;
18102;SDS011;9178;51.120;6.192;2023-02-24T10:51:06;10.80;;;2.50;;
18102;SDS011;9178;51.120;6.192;2023-02-24T10:53:42;15.07;;;2.60;;
18102;SDS011;9178;51.120;6.192;2023-02-24T10:56:18;9.33;;;2.17;;
18102;SDS011;9178;51.120;6.192;2023-02-24T10:59:01;5.87;;;1.83;;
18102;SDS011;9178;51.120;6.192;2023-02-24T11:01:49;12.93;;;2.87;;
18102;SDS011;9178;51.120;6.192;2023-02-24T11:04:29;7.00;;;2.43;;
18102;SDS011;9178;51.120;6.192;2023-02-24T11:07:18;12.67;;;2.33;;
18102;SDS011;9178;51.120;6.192;2023-02-24T11:10:00;9.60;;;2.13;;
18102;SDS011;9178;51.120;6.192;2023-02-24T11:12:41;6.93;;;2.33;;
18102;SDS011;9178;51.120;6.192;2023-02-24T11:15:27;8.80;;;2.77;;
18102;SDS011;9178;51.120;6.192;2023-02-24T11:18:15;8.70;;;2.60;;
18102;SDS011;9178;51.120;6.192;2023-02-24T11:20:45;7.80;;;3.00;;
18102;SDS011;9178;51.120;6.192;2023-02-24T11:23:14;12.37;;;2.93;;
18102;SDS011;9178;51.120;6.192;2023-02-24T11:25:45;8.17;;;2.60;;
18102;SDS011;9178;51.120;6.192;2023-02-24T11:28:22;16.67;;;2.90;;
18102;SDS011;9178;51.120;6.192;2023-02-24T11:31:09;11.20;;;2.90;;
18102;SDS011;9178;51.120;6.192;2023-02-24T11:33:48;13.57;;;3.07;;
18102;SDS011;9178;51.120;6.192;2023-02-24T11:36:22;11.30;;;2.50;;
18102;SDS011;9178;51.120;6.192;2023-02-24T11:38:59;14.13;;;2.93;;
18102;SDS011;9178;51.120;6.192;2023-02-24T11:41:34;13.27;;;3.30;;
18102;SDS011;9178;51.120;6.192;2023-02-24T11:44:08;8.57;;;3.17;;
18102;SDS011;9178;51.120;6.192;2023-02-24T11:46:39;11.73;;;2.80;;
18102;SDS011;9178;51.120;6.192;2023-02-24T11:49:15;11.63;;;3.20;;
18102;SDS011;9178;51.120;6.192;2023-02-24T11:51:50;8.63;;;2.60;;
18102;SDS011;9178;51.120;6.192;2023-02-24T11:54:19;6.20;;;2.37;;
18102;SDS011;9178;51.120;6.192;2023-02-24T11:56:49;18.00;;;3.50;;
18102;SDS011;9178;51.120;6.192;2023-02-24T11:59:24;12.67;;;2.77;;
18102;SDS011;9178;51.120;6.192;2023-02-24T12:01:57;9.80;;;2.63;;
18102;SDS011;9178;51.120;6.192;2023-02-24T12:04:31;11.83;;;3.20;;
18102;SDS011;9178;51.120;6.192;2023-02-24T12:07:04;8.40;;;2.47;;
18102;SDS011;9178;51.120;6.192;2023-02-24T12:09:33;11.30;;;2.97;;
18102;SDS011;9178;51.120;6.192;2023-02-24T12:12:07;9.03;;;2.73;;
18102;SDS011;9178;51.120;6.192;2023-02-24T12:14:40;6.00;;;2.50;;
18102;SDS011;9178;51.120;6.192;2023-02-24T12:17:14;10.97;;;2.50;;
18102;SDS011;9178;51.120;6.192;2023-02-24T12:19:49;7.83;;;2.70;;
18102;SDS011;9178;51.120;6.192;2023-02-24T12:22:21;9.77;;;2.90;;
18102;SDS011;9178;51.120;6.192;2023-02-24T12:24:51;7.27;;;2.97;;
18102;SDS011;9178;51.120;6.192;2023-02-24T12:27:22;12.30;;;3.00;;
18102;SDS011;9178;51.120;6.192;2023-02-24T12:30:02;13.03;;;3.00;;
18102;SDS011;9178;51.120;6.192;2023-02-24T12:32:49;8.13;;;3.20;;
18102;SDS011;9178;51.120;6.192;2023-02-24T12:35:28;12.27;;;2.97;;
18102;SDS011;9178;51.120;6.192;2023-02-24T12:38:07;7.77;;;3.43;;
18102;SDS011;9178;51.120;6.192;2023-02-24T12:40:45;8.93;;;2.77;;
18102;SDS011;9178;51.120;6.192;2023-02-24T12:43:24;13.67;;;3.60;;
18102;SDS011;9178;51.120;6.192;2023-02-24T12:46:00;10.93;;;3.10;;
18102;SDS011;9178;51.120;6.192;2023-02-24T12:48:49;10.97;;;3.60;;
18102;SDS011;9178;51.120;6.192;2023-02-24T12:51:35;13.30;;;3.50;;
18102;SDS011;9178;51.120;6.192;2023-02-24T12:54:09;8.27;;;3.30;;
18102;SDS011;9178;51.120;6.192;2023-02-24T12:56:44;10.27;;;3.07;;
18102;SDS011;9178;51.120;6.192;2023-02-24T12:59:18;12.47;;;3.27;;
18102;SDS011;9178;51.120;6.192;2023-02-24T13:01:54;13.00;;;3.37;;
18102;SDS011;9178;51.120;6.192;2023-02-24T13:04:28;12.37;;;3.17;;
18102;SDS011;9178;51.120;6.192;2023-02-24T13:07:11;10.73;;;3.30;;
18102;SDS011;9178;51.120;6.192;2023-02-24T13:09:56;10.50;;;3.40;;
18102;SDS011;9178;51.120;6.192;2023-02-24T13:12:32;8.77;;;3.13;;
18102;SDS011;9178;51.120;6.192;2023-02-24T13:15:06;13.63;;;3.10;;
18102;SDS011;9178;51.120;6.192;2023-02-24T13:17:45;9.40;;;2.80;;
18102;SDS011;9178;51.120;6.192;2023-02-24T13:20:24;8.57;;;3.23;;
18102;SDS011;9178;51.120;6.192;2023-02-24T13:22:52;8.00;;;3.40;;
18102;SDS011;9178;51.120;6.192;2023-02-24T13:25:20;8.93;;;2.67;;
18102;SDS011;9178;51.120;6.192;2023-02-24T13:27:55;14.37;;;3.03;;
18102;SDS011;9178;51.120;6.192;2023-02-24T13:30:26;13.27;;;3.07;;
18102;SDS011;9178;51.120;6.192;2023-02-24T13:33:03;12.07;;;3.30;;
18102;SDS011;9178;51.120;6.192;2023-02-24T13:35:33;10.70;;;3.50;;
18102;SDS011;9178;51.120;6.192;2023-02-24T13:38:21;10.83;;;3.00;;
18102;SDS011;9178;51.120;6.192;2023-02-24T13:40:51;7.90;;;2.70;;
18102;SDS011;9178;51.120;6.192;2023-02-24T13:43:22;9.70;;;3.10;;
18102;SDS011;9178;51.120;6.192;2023-02-24T13:45:55;8.17;;;3.00;;
18102;SDS011;9178;51.120;6.192;2023-02-24T13:48:33;9.03;;;2.87;;
18102;SDS011;9178;51.120;6.192;2023-02-24T13:51:17;8.37;;;2.90;;
18102;SDS011;9178;51.120;6.192;2023-02-24T13:53:58;12.10;;;2.80;;
18102;SDS011;9178;51.120;6.192;2023-02-24T13:56:36;9.93;;;2.90;;
18102;SDS011;9178;51.120;6.192;2023-02-24T14:02:19;10.40;;;3.43;;
18102;SDS011;9178;51.120;6.192;2023-02-24T14:04:49;12.57;;;3.80;;
18102;SDS011;9178;51.120;6.192;2023-02-24T14:07:18;12.77;;;3.23;;
18102;SDS011;9178;51.120;6.192;2023-02-24T14:09:49;11.30;;;3.23;;
18102;SDS011;9178;51.120;6.192;2023-02-24T14:12:19;10.83;;;3.60;;
18102;SDS011;9178;51.120;6.192;2023-02-24T14:14:49;9.20;;;3.97;;
18102;SDS011;9178;51.120;6.192;2023-02-24T14:17:21;7.27;;;3.53;;
18102;SDS011;9178;51.120;6.192;2023-02-24T14:19:54;12.93;;;4.00;;
18102;SDS011;9178;51.120;6.192;2023-02-24T14:22:21;13.80;;;3.90;;
18102;SDS011;9178;51.120;6.192;2023-02-24T14:24:48;8.03;;;3.67;;
18102;SDS011;9178;51.120;6.192;2023-02-24T14:27:25;9.23;;;3.67;;
18102;SDS011;9178;51.120;6.192;2023-02-24T14:29:52;9.63;;;3.73;;
18102;SDS011;9178;51.120;6.192;2023-02-24T14:32:20;13.33;;;3.80;;
18102;SDS011;9178;51.120;6.192;2023-02-24T14:34:49;13.03;;;3.70;;
18102;SDS011;9178;51.120;6.192;2023-02-24T14:37:18;8.77;;;3.57;;
18102;SDS011;9178;51.120;6.192;2023-02-24T14:39:48;13.53;;;4.40;;
18102;SDS011;9178;51.120;6.192;2023-02-24T14:42:17;12.33;;;4.50;;
18102;SDS011;9178;51.120;6.192;2023-02-24T14:44:45;8.60;;;3.87;;
18102;SDS011;9178;51.120;6.192;2023-02-24T14:47:14;15.27;;;4.57;;
18102;SDS011;9178;51.120;6.192;2023-02-24T14:49:50;9.97;;;4.10;;
18102;SDS011;9178;51.120;6.192;2023-02-24T14:52:21;9.20;;;4.33;;
18102;SDS011;9178;51.120;6.192;2023-02-24T14:54:53;13.23;;;4.00;;
18102;SDS011;9178;51.120;6.192;2023-02-24T14:57:25;11.97;;;4.23;;
18102;SDS011;9178;51.120;6.192;2023-02-24T14:59:55;10.67;;;4.70;;
18102;SDS011;9178;51.120;6.192;2023-02-24T15:02:24;11.27;;;4.77;;
18102;SDS011;9178;51.120;6.192;2023-02-24T15:04:55;12.00;;;5.30;;
18102;SDS011;9178;51.120;6.192;2023-02-24T15:07:25;10.10;;;5.00;;
18102;SDS011;9178;51.120;6.192;2023-02-24T15:09:54;12.93;;;4.87;;
18102;SDS011;9178;51.120;6.192;2023-02-24T15:12:22;9.87;;;4.43;;
18102;SDS011;9178;51.120;6.192;2023-02-24T15:14:55;15.80;;;5.00;;
18102;SDS011;9178;51.120;6.192;2023-02-24T15:17:25;12.70;;;4.90;;
18102;SDS011;9178;51.120;6.192;2023-02-24T15:19:52;14.57;;;5.87;;
18102;SDS011;9178;51.120;6.192;2023-02-24T15:22:23;10.97;;;5.70;;
18102;SDS011;9178;51.120;6.192;2023-02-24T15:24:53;11.27;;;5.37;;
18102;SDS011;9178;51.120;6.192;2023-02-24T15:27:23;10.83;;;6.20;;
18102;SDS011;9178;51.120;6.192;2023-02-24T15:29:56;10.60;;;5.50;;
18102;SDS011;9178;51.120;6.192;2023-02-24T15:32:26;12.97;;;6.13;;
18102;SDS011;9178;51.120;6.192;2023-02-24T15:34:55;11.73;;;5.93;;